ADDS TAF Board (Experimental) INFO Settings
IDs: Format: Expanded Condensed

KSTL - St Louis/Lambert Int, MO, US

Issued at 0530 UTC 26 Jun 2016
Updated at: 0808 UTC 26 Jun 2016
Time0751Z 26/09Z 26/10Z 26/11Z 26/12Z 26/13Z 26/14Z 26/15Z 26/16Z 26/17Z 26/18Z 26/19Z 26/20Z 26/21Z
Type OBS PRVL PRVL PRVL PRVL PRVL PRVL PRVL PRVL PRVL PRVL PRVL PRVL PRVL
VIS 10 >6 >6 >6 >6 >6 >6 >6 >6 >6 >6 >6 >6 >6
CIG 250 250 250 250 250 250 250 250 250 40 40 40 40 40
Cover BKN BKN BKN BKN BKN BKN BKN BKN BKN BKN BKN BKN BKN BKN
FltCat VFR VFR VFR VFR VFR VFR VFR VFR VFR VFR VFR VFR VFR VFR
WX -- -- -- -- -- -- -- -- -- VCTS VCTS VCTS VCTS VCTS
WDir 180 180 180 180 180 180 180 180 180 270 270 270 270 270
WSpd 4 5 5 5 5 5 5 5 5 8 8 8 8 8
WGst -- -- -- -- -- -- -- -- -- -- -- -- -- --
R06/24
XWnd -4 -4 -4 -4 -4 -4 -4 -4 -4 4 4 4 4 4
HWnd -2 -2 -2 -2 -2 -2 -2 -2 -2 -7 -7 -7 -7 -7
R11/29
XWnd -3 -4 -4 -4 -4 -4 -4 -4 -4 -4 -4 -4 -4 -4
HWnd 2 3 3 3 3 3 3 3 3 -7 -7 -7 -7 -7
R12/30
XWnd -3 -4 -4 -4 -4 -4 -4 -4 -4 -4 -4 -4 -4 -4
HWnd 2 3 3 3 3 3 3 3 3 -7 -7 -7 -7 -7

NOTE: TEMPO conditions in [brackets]. Keep in mind TEMPO conditions might be better (lower impact) than prevailing conditions.

Raw TAF
KSTL 260530Z 2606/2712 18005KT P6SM SCT120 BKN250
  FM261700 27008KT P6SM VCTS BKN040CB
  FM262200 34007KT P6SM VCSH SCT050 BKN120
  FM270200 VRB04KT P6SM BKN250


Raw METAR
KSTL 260751Z 18004KT 10SM SCT130 BKN250 26/21 A3003 RMK AO2 SLP153 T02560211 $
KSTL 260651Z 17004KT 10SM SCT130 BKN250 26/21 A3004 RMK AO2 SLP155 T02560211 $
KSTL 260551Z 19003KT 10SM SCT130 BKN250 26/21 A3004 RMK AO2 SLP157 T02610211 10267 20256 403610244 50010 $

METAR Board
Radar Display
Forecast Discussion

TAF Board Legend

Potential Impact
Threat None Slight Moderate High
Visibility (sm) ≥5.1 5.1>X≥3 3>X≥1 <1
Ceiling (100 ft) ≥30.1 30.1>X≥10 10>X≥5 <5
Wind Speed (kt) <10 10≤X<20 20≤X<30 ≥30
Wind Gust (kt) <15 15≤X<25 25≤X<35 ≥35
Weather No Wx Reported VCTS,-TS,-FZRA,SN TS,FZRA +TS,+FZRA,+SN